sensor_id;sensor_type;location;lat;lon;timestamp;P1;durP1;ratioP1;P2;durP2;ratioP2
56242;SDS011;42155;53.096;23.226;2022-08-18T00:00:56;18.55;;;10.32;;
56242;SDS011;42155;53.096;23.226;2022-08-18T00:03:02;19.95;;;10.65;;
56242;SDS011;42155;53.096;23.226;2022-08-18T00:05:05;18.20;;;12.15;;
56242;SDS011;42155;53.096;23.226;2022-08-18T00:07:07;20.60;;;11.85;;
56242;SDS011;42155;53.096;23.226;2022-08-18T00:09:10;24.95;;;12.88;;
56242;SDS011;42155;53.096;23.226;2022-08-18T00:11:11;21.15;;;12.73;;
56242;SDS011;42155;53.096;23.226;2022-08-18T00:13:11;19.42;;;12.07;;
56242;SDS011;42155;53.096;23.226;2022-08-18T00:15:13;21.98;;;12.15;;
56242;SDS011;42155;53.096;23.226;2022-08-18T00:17:15;19.00;;;11.90;;
56242;SDS011;42155;53.096;23.226;2022-08-18T00:19:15;21.00;;;11.63;;
56242;SDS011;42155;53.096;23.226;2022-08-18T00:21:16;20.23;;;10.65;;
56242;SDS011;42155;53.096;23.226;2022-08-18T00:23:17;23.00;;;11.25;;
56242;SDS011;42155;53.096;23.226;2022-08-18T00:25:19;17.58;;;11.60;;
56242;SDS011;42155;53.096;23.226;2022-08-18T00:27:22;19.27;;;11.15;;
56242;SDS011;42155;53.096;23.226;2022-08-18T00:29:24;19.65;;;11.95;;
56242;SDS011;42155;53.096;23.226;2022-08-18T00:31:24;22.73;;;11.93;;
56242;SDS011;42155;53.096;23.226;2022-08-18T00:33:25;20.10;;;11.90;;
56242;SDS011;42155;53.096;23.226;2022-08-18T00:35:30;17.83;;;11.88;;
56242;SDS011;42155;53.096;23.226;2022-08-18T00:37:32;21.52;;;14.35;;
56242;SDS011;42155;53.096;23.226;2022-08-18T00:39:33;21.38;;;12.82;;
56242;SDS011;42155;53.096;23.226;2022-08-18T00:41:33;17.58;;;12.10;;
56242;SDS011;42155;53.096;23.226;2022-08-18T00:43:41;20.42;;;12.32;;
56242;SDS011;42155;53.096;23.226;2022-08-18T00:45:47;26.05;;;12.48;;
56242;SDS011;42155;53.096;23.226;2022-08-18T00:47:47;18.30;;;12.10;;
56242;SDS011;42155;53.096;23.226;2022-08-18T00:49:49;17.35;;;11.18;;
56242;SDS011;42155;53.096;23.226;2022-08-18T00:51:52;22.45;;;12.35;;
56242;SDS011;42155;53.096;23.226;2022-08-18T00:54:04;13.70;;;10.05;;
56242;SDS011;42155;53.096;23.226;2022-08-18T00:56:06;14.98;;;10.30;;
56242;SDS011;42155;53.096;23.226;2022-08-18T00:58:15;22.95;;;11.32;;
56242;SDS011;42155;53.096;23.226;2022-08-18T01:00:21;13.32;;;8.80;;
56242;SDS011;42155;53.096;23.226;2022-08-18T01:02:31;14.80;;;10.73;;
56242;SDS011;42155;53.096;23.226;2022-08-18T01:04:57;14.25;;;10.38;;
56242;SDS011;42155;53.096;23.226;2022-08-18T01:07:01;16.50;;;10.90;;
56242;SDS011;42155;53.096;23.226;2022-08-18T01:09:07;16.77;;;11.38;;
56242;SDS011;42155;53.096;23.226;2022-08-18T01:11:08;15.60;;;10.55;;
56242;SDS011;42155;53.096;23.226;2022-08-18T01:13:08;13.20;;;9.63;;
56242;SDS011;42155;53.096;23.226;2022-08-18T01:15:09;18.95;;;9.90;;
56242;SDS011;42155;53.096;23.226;2022-08-18T01:17:10;19.33;;;11.65;;
56242;SDS011;42155;53.096;23.226;2022-08-18T01:19:11;14.63;;;10.73;;
56242;SDS011;42155;53.096;23.226;2022-08-18T01:21:19;19.17;;;12.23;;
56242;SDS011;42155;53.096;23.226;2022-08-18T01:23:24;16.55;;;10.98;;
56242;SDS011;42155;53.096;23.226;2022-08-18T01:25:25;21.05;;;11.70;;
56242;SDS011;42155;53.096;23.226;2022-08-18T01:27:26;23.42;;;13.52;;
56242;SDS011;42155;53.096;23.226;2022-08-18T01:29:26;24.38;;;13.80;;
56242;SDS011;42155;53.096;23.226;2022-08-18T01:31:34;23.65;;;13.68;;
56242;SDS011;42155;53.096;23.226;2022-08-18T01:33:40;17.88;;;10.85;;
56242;SDS011;42155;53.096;23.226;2022-08-18T01:35:42;16.30;;;10.02;;
56242;SDS011;42155;53.096;23.226;2022-08-18T01:37:45;16.08;;;11.15;;
56242;SDS011;42155;53.096;23.226;2022-08-18T01:39:46;16.65;;;10.65;;
56242;SDS011;42155;53.096;23.226;2022-08-18T01:41:46;17.52;;;10.60;;
56242;SDS011;42155;53.096;23.226;2022-08-18T01:43:48;19.83;;;11.07;;
56242;SDS011;42155;53.096;23.226;2022-08-18T01:45:49;21.73;;;11.65;;
56242;SDS011;42155;53.096;23.226;2022-08-18T01:47:49;25.25;;;14.65;;
56242;SDS011;42155;53.096;23.226;2022-08-18T01:49:50;18.10;;;11.88;;
56242;SDS011;42155;53.096;23.226;2022-08-18T01:51:50;19.65;;;12.70;;
56242;SDS011;42155;53.096;23.226;2022-08-18T01:53:50;17.27;;;11.93;;
56242;SDS011;42155;53.096;23.226;2022-08-18T01:55:51;22.50;;;12.13;;
56242;SDS011;42155;53.096;23.226;2022-08-18T01:57:51;16.30;;;9.82;;
56242;SDS011;42155;53.096;23.226;2022-08-18T01:59:51;17.13;;;10.73;;
56242;SDS011;42155;53.096;23.226;2022-08-18T02:01:52;19.08;;;12.07;;
56242;SDS011;42155;53.096;23.226;2022-08-18T02:03:53;20.52;;;12.10;;
56242;SDS011;42155;53.096;23.226;2022-08-18T02:05:59;17.08;;;11.68;;
56242;SDS011;42155;53.096;23.226;2022-08-18T02:08:01;18.48;;;11.27;;
56242;SDS011;42155;53.096;23.226;2022-08-18T02:10:02;16.05;;;9.85;;
56242;SDS011;42155;53.096;23.226;2022-08-18T02:12:05;18.75;;;11.20;;
56242;SDS011;42155;53.096;23.226;2022-08-18T02:14:06;15.20;;;10.43;;
56242;SDS011;42155;53.096;23.226;2022-08-18T02:16:07;18.70;;;10.63;;
56242;SDS011;42155;53.096;23.226;2022-08-18T02:18:14;17.70;;;11.98;;
56242;SDS011;42155;53.096;23.226;2022-08-18T02:20:16;16.02;;;10.15;;
56242;SDS011;42155;53.096;23.226;2022-08-18T02:22:18;15.10;;;11.00;;
56242;SDS011;42155;53.096;23.226;2022-08-18T02:24:19;15.70;;;11.02;;
56242;SDS011;42155;53.096;23.226;2022-08-18T02:26:20;17.13;;;11.88;;
56242;SDS011;42155;53.096;23.226;2022-08-18T02:28:21;19.95;;;10.25;;
56242;SDS011;42155;53.096;23.226;2022-08-18T02:30:22;20.83;;;12.30;;
56242;SDS011;42155;53.096;23.226;2022-08-18T02:32:22;17.60;;;11.13;;
56242;SDS011;42155;53.096;23.226;2022-08-18T02:34:22;15.98;;;11.88;;
56242;SDS011;42155;53.096;23.226;2022-08-18T02:36:23;16.05;;;11.52;;
56242;SDS011;42155;53.096;23.226;2022-08-18T02:38:23;19.90;;;12.45;;
56242;SDS011;42155;53.096;23.226;2022-08-18T02:40:24;16.88;;;10.32;;
56242;SDS011;42155;53.096;23.226;2022-08-18T02:42:24;18.40;;;11.32;;
56242;SDS011;42155;53.096;23.226;2022-08-18T02:44:25;17.35;;;11.75;;
56242;SDS011;42155;53.096;23.226;2022-08-18T02:46:25;12.70;;;10.13;;
56242;SDS011;42155;53.096;23.226;2022-08-18T02:48:26;14.70;;;11.05;;
56242;SDS011;42155;53.096;23.226;2022-08-18T02:50:26;19.35;;;11.63;;
56242;SDS011;42155;53.096;23.226;2022-08-18T02:52:27;15.82;;;10.88;;
56242;SDS011;42155;53.096;23.226;2022-08-18T02:54:27;13.15;;;9.35;;
56242;SDS011;42155;53.096;23.226;2022-08-18T02:56:29;14.95;;;10.10;;
56242;SDS011;42155;53.096;23.226;2022-08-18T02:58:30;13.93;;;9.82;;
56242;SDS011;42155;53.096;23.226;2022-08-18T03:00:30;13.35;;;10.45;;
56242;SDS011;42155;53.096;23.226;2022-08-18T03:02:30;15.45;;;11.23;;
56242;SDS011;42155;53.096;23.226;2022-08-18T03:04:31;17.40;;;10.68;;
56242;SDS011;42155;53.096;23.226;2022-08-18T03:06:33;15.10;;;9.73;;
56242;SDS011;42155;53.096;23.226;2022-08-18T03:08:35;17.33;;;11.75;;
56242;SDS011;42155;53.096;23.226;2022-08-18T03:10:35;18.90;;;11.35;;
56242;SDS011;42155;53.096;23.226;2022-08-18T03:12:35;18.88;;;11.70;;
56242;SDS011;42155;53.096;23.226;2022-08-18T03:14:36;17.10;;;11.30;;
56242;SDS011;42155;53.096;23.226;2022-08-18T03:16:40;10.48;;;7.93;;
56242;SDS011;42155;53.096;23.226;2022-08-18T03:18:43;13.38;;;8.68;;
56242;SDS011;42155;53.096;23.226;2022-08-18T03:20:44;14.55;;;9.95;;
56242;SDS011;42155;53.096;23.226;2022-08-18T03:24:52;11.98;;;9.50;;
56242;SDS011;42155;53.096;23.226;2022-08-18T03:26:53;11.32;;;9.18;;
56242;SDS011;42155;53.096;23.226;2022-08-18T03:28:54;16.63;;;10.32;;
56242;SDS011;42155;53.096;23.226;2022-08-18T03:30:56;17.13;;;9.90;;
56242;SDS011;42155;53.096;23.226;2022-08-18T03:32:56;16.17;;;10.10;;
56242;SDS011;42155;53.096;23.226;2022-08-18T03:34:56;12.23;;;9.13;;
56242;SDS011;42155;53.096;23.226;2022-08-18T03:36:57;12.30;;;8.50;;
56242;SDS011;42155;53.096;23.226;2022-08-18T03:39:00;17.30;;;9.13;;
56242;SDS011;42155;53.096;23.226;2022-08-18T03:41:07;15.60;;;10.48;;
56242;SDS011;42155;53.096;23.226;2022-08-18T03:43:08;13.70;;;9.40;;
56242;SDS011;42155;53.096;23.226;2022-08-18T03:45:09;15.00;;;10.38;;
56242;SDS011;42155;53.096;23.226;2022-08-18T03:47:09;15.18;;;10.50;;
56242;SDS011;42155;53.096;23.226;2022-08-18T03:49:10;14.60;;;10.65;;
56242;SDS011;42155;53.096;23.226;2022-08-18T03:51:19;17.83;;;10.50;;
56242;SDS011;42155;53.096;23.226;2022-08-18T03:53:20;20.27;;;11.40;;
56242;SDS011;42155;53.096;23.226;2022-08-18T03:55:21;16.58;;;11.05;;
56242;SDS011;42155;53.096;23.226;2022-08-18T03:57:21;17.27;;;10.70;;
56242;SDS011;42155;53.096;23.226;2022-08-18T03:59:23;17.40;;;11.10;;
56242;SDS011;42155;53.096;23.226;2022-08-18T04:01:25;21.08;;;12.18;;
56242;SDS011;42155;53.096;23.226;2022-08-18T04:03:27;18.38;;;11.65;;
56242;SDS011;42155;53.096;23.226;2022-08-18T04:05:28;20.70;;;10.85;;
56242;SDS011;42155;53.096;23.226;2022-08-18T04:07:28;22.23;;;11.55;;
56242;SDS011;42155;53.096;23.226;2022-08-18T04:09:29;18.27;;;11.02;;
56242;SDS011;42155;53.096;23.226;2022-08-18T04:11:32;18.60;;;10.88;;
56242;SDS011;42155;53.096;23.226;2022-08-18T04:13:33;14.75;;;10.23;;
56242;SDS011;42155;53.096;23.226;2022-08-18T04:15:34;15.88;;;10.43;;
56242;SDS011;42155;53.096;23.226;2022-08-18T04:17:36;22.05;;;10.93;;
56242;SDS011;42155;53.096;23.226;2022-08-18T04:19:36;18.83;;;10.43;;
56242;SDS011;42155;53.096;23.226;2022-08-18T04:21:37;14.88;;;9.55;;
56242;SDS011;42155;53.096;23.226;2022-08-18T04:23:40;18.05;;;9.63;;
56242;SDS011;42155;53.096;23.226;2022-08-18T04:25:40;14.48;;;9.10;;
56242;SDS011;42155;53.096;23.226;2022-08-18T04:27:40;19.70;;;9.35;;
56242;SDS011;42155;53.096;23.226;2022-08-18T04:29:41;17.20;;;9.48;;
56242;SDS011;42155;53.096;23.226;2022-08-18T04:31:41;15.43;;;9.77;;
56242;SDS011;42155;53.096;23.226;2022-08-18T04:33:42;14.80;;;10.07;;
56242;SDS011;42155;53.096;23.226;2022-08-18T04:35:43;17.63;;;10.75;;
56242;SDS011;42155;53.096;23.226;2022-08-18T04:37:43;15.80;;;10.52;;
56242;SDS011;42155;53.096;23.226;2022-08-18T04:39:43;15.55;;;9.82;;
56242;SDS011;42155;53.096;23.226;2022-08-18T04:41:44;16.90;;;9.75;;
56242;SDS011;42155;53.096;23.226;2022-08-18T04:43:44;17.17;;;9.40;;
56242;SDS011;42155;53.096;23.226;2022-08-18T04:45:45;14.75;;;10.50;;
56242;SDS011;42155;53.096;23.226;2022-08-18T04:47:45;14.23;;;9.60;;
56242;SDS011;42155;53.096;23.226;2022-08-18T04:49:45;13.75;;;9.63;;
56242;SDS011;42155;53.096;23.226;2022-08-18T04:51:46;16.00;;;9.35;;
56242;SDS011;42155;53.096;23.226;2022-08-18T04:53:48;13.60;;;10.13;;
56242;SDS011;42155;53.096;23.226;2022-08-18T04:55:50;21.08;;;9.68;;
56242;SDS011;42155;53.096;23.226;2022-08-18T04:57:52;13.90;;;9.43;;
56242;SDS011;42155;53.096;23.226;2022-08-18T04:59:52;15.32;;;9.32;;
56242;SDS011;42155;53.096;23.226;2022-08-18T05:01:53;17.52;;;9.65;;
56242;SDS011;42155;53.096;23.226;2022-08-18T05:03:53;17.42;;;9.73;;
56242;SDS011;42155;53.096;23.226;2022-08-18T05:05:56;14.80;;;8.80;;
56242;SDS011;42155;53.096;23.226;2022-08-18T05:07:57;16.17;;;9.48;;
56242;SDS011;42155;53.096;23.226;2022-08-18T05:09:57;13.40;;;9.50;;
56242;SDS011;42155;53.096;23.226;2022-08-18T05:11:58;20.77;;;10.10;;
56242;SDS011;42155;53.096;23.226;2022-08-18T05:14:01;17.63;;;10.32;;
56242;SDS011;42155;53.096;23.226;2022-08-18T05:16:06;21.55;;;9.77;;
56242;SDS011;42155;53.096;23.226;2022-08-18T05:18:07;17.80;;;8.93;;
56242;SDS011;42155;53.096;23.226;2022-08-18T05:20:07;16.45;;;9.50;;
56242;SDS011;42155;53.096;23.226;2022-08-18T05:22:08;14.73;;;9.15;;
56242;SDS011;42155;53.096;23.226;2022-08-18T05:24:09;16.95;;;9.10;;
56242;SDS011;42155;53.096;23.226;2022-08-18T05:26:10;21.63;;;9.65;;
56242;SDS011;42155;53.096;23.226;2022-08-18T05:28:11;15.82;;;9.00;;
56242;SDS011;42155;53.096;23.226;2022-08-18T05:30:12;21.85;;;9.30;;
56242;SDS011;42155;53.096;23.226;2022-08-18T05:32:12;13.05;;;8.88;;
56242;SDS011;42155;53.096;23.226;2022-08-18T05:34:13;22.60;;;9.13;;
56242;SDS011;42155;53.096;23.226;2022-08-18T05:39:07;18.25;;;9.38;;
56242;SDS011;42155;53.096;23.226;2022-08-18T05:41:36;17.73;;;9.13;;
56242;SDS011;42155;53.096;23.226;2022-08-18T05:43:39;18.50;;;8.93;;
56242;SDS011;42155;53.096;23.226;2022-08-18T05:45:43;14.10;;;8.93;;
56242;SDS011;42155;53.096;23.226;2022-08-18T05:47:44;17.55;;;8.38;;
56242;SDS011;42155;53.096;23.226;2022-08-18T05:49:45;15.65;;;7.43;;
56242;SDS011;42155;53.096;23.226;2022-08-18T05:51:48;23.15;;;8.32;;
56242;SDS011;42155;53.096;23.226;2022-08-18T05:53:52;20.92;;;8.35;;
56242;SDS011;42155;53.096;23.226;2022-08-18T05:56:02;16.50;;;7.47;;
56242;SDS011;42155;53.096;23.226;2022-08-18T05:58:07;23.73;;;7.15;;
56242;SDS011;42155;53.096;23.226;2022-08-18T06:00:13;12.50;;;6.70;;
56242;SDS011;42155;53.096;23.226;2022-08-18T06:02:17;11.98;;;6.72;;
56242;SDS011;42155;53.096;23.226;2022-08-18T06:04:45;13.02;;;6.93;;
56242;SDS011;42155;53.096;23.226;2022-08-18T06:06:47;14.38;;;6.45;;
56242;SDS011;42155;53.096;23.226;2022-08-18T06:11:14;12.07;;;6.70;;
56242;SDS011;42155;53.096;23.226;2022-08-18T06:13:14;18.88;;;6.40;;
56242;SDS011;42155;53.096;23.226;2022-08-18T06:15:24;16.75;;;5.85;;
56242;SDS011;42155;53.096;23.226;2022-08-18T06:19:37;13.68;;;6.57;;
56242;SDS011;42155;53.096;23.226;2022-08-18T06:21:51;12.32;;;6.00;;
56242;SDS011;42155;53.096;23.226;2022-08-18T06:26:34;20.42;;;7.00;;
56242;SDS011;42155;53.096;23.226;2022-08-18T06:35:57;16.10;;;6.80;;
56242;SDS011;42155;53.096;23.226;2022-08-18T06:40:30;11.13;;;6.25;;
56242;SDS011;42155;53.096;23.226;2022-08-18T06:42:30;13.05;;;6.20;;
56242;SDS011;42155;53.096;23.226;2022-08-18T06:48:55;14.85;;;6.45;;
56242;SDS011;42155;53.096;23.226;2022-08-18T06:51:02;17.75;;;6.45;;
56242;SDS011;42155;53.096;23.226;2022-08-18T06:53:06;11.35;;;6.45;;
56242;SDS011;42155;53.096;23.226;2022-08-18T06:55:09;13.40;;;6.40;;
56242;SDS011;42155;53.096;23.226;2022-08-18T06:57:22;17.75;;;6.80;;
56242;SDS011;42155;53.096;23.226;2022-08-18T06:59:29;12.55;;;6.75;;
56242;SDS011;42155;53.096;23.226;2022-08-18T07:01:31;11.05;;;5.88;;
56242;SDS011;42155;53.096;23.226;2022-08-18T07:05:35;12.23;;;5.72;;
56242;SDS011;42155;53.096;23.226;2022-08-18T07:07:37;19.63;;;6.20;;
56242;SDS011;42155;53.096;23.226;2022-08-18T07:09:38;15.68;;;5.78;;
56242;SDS011;42155;53.096;23.226;2022-08-18T07:11:39;20.45;;;6.55;;
56242;SDS011;42155;53.096;23.226;2022-08-18T07:13:40;12.43;;;6.32;;
56242;SDS011;42155;53.096;23.226;2022-08-18T07:15:41;11.88;;;6.13;;
56242;SDS011;42155;53.096;23.226;2022-08-18T07:17:43;17.10;;;6.28;;
56242;SDS011;42155;53.096;23.226;2022-08-18T07:19:54;14.57;;;6.20;;
56242;SDS011;42155;53.096;23.226;2022-08-18T07:22:10;12.20;;;5.80;;
56242;SDS011;42155;53.096;23.226;2022-08-18T07:24:19;12.60;;;6.32;;
56242;SDS011;42155;53.096;23.226;2022-08-18T07:26:26;16.60;;;6.55;;
56242;SDS011;42155;53.096;23.226;2022-08-18T07:28:28;19.70;;;6.13;;
56242;SDS011;42155;53.096;23.226;2022-08-18T07:30:33;18.05;;;6.22;;
56242;SDS011;42155;53.096;23.226;2022-08-18T07:32:46;10.15;;;6.35;;
56242;SDS011;42155;53.096;23.226;2022-08-18T07:34:52;18.48;;;6.20;;
56242;SDS011;42155;53.096;23.226;2022-08-18T07:36:59;14.88;;;6.32;;
56242;SDS011;42155;53.096;23.226;2022-08-18T07:39:22;16.08;;;6.72;;
56242;SDS011;42155;53.096;23.226;2022-08-18T07:41:31;15.88;;;6.45;;
56242;SDS011;42155;53.096;23.226;2022-08-18T07:45:49;12.57;;;6.00;;
56242;SDS011;42155;53.096;23.226;2022-08-18T07:50:05;16.15;;;4.90;;
56242;SDS011;42155;53.096;23.226;2022-08-18T07:52:07;15.65;;;5.65;;
56242;SDS011;42155;53.096;23.226;2022-08-18T07:54:28;11.27;;;5.00;;
56242;SDS011;42155;53.096;23.226;2022-08-18T07:56:38;11.60;;;5.03;;
56242;SDS011;42155;53.096;23.226;2022-08-18T07:58:58;24.52;;;5.55;;
56242;SDS011;42155;53.096;23.226;2022-08-18T08:03:29;17.33;;;5.50;;
56242;SDS011;42155;53.096;23.226;2022-08-18T08:07:49;14.45;;;5.45;;
56242;SDS011;42155;53.096;23.226;2022-08-18T08:14:45;17.33;;;5.90;;
56242;SDS011;42155;53.096;23.226;2022-08-18T08:16:47;10.95;;;5.22;;
56242;SDS011;42155;53.096;23.226;2022-08-18T08:19:13;13.13;;;5.45;;
56242;SDS011;42155;53.096;23.226;2022-08-18T08:21:30;8.82;;;5.32;;
56242;SDS011;42155;53.096;23.226;2022-08-18T08:30:31;12.02;;;5.13;;
56242;SDS011;42155;53.096;23.226;2022-08-18T08:32:36;12.00;;;4.85;;
56242;SDS011;42155;53.096;23.226;2022-08-18T08:34:49;12.48;;;5.00;;
56242;SDS011;42155;53.096;23.226;2022-08-18T08:37:04;15.82;;;4.90;;
56242;SDS011;42155;53.096;23.226;2022-08-18T08:39:18;10.07;;;4.63;;
56242;SDS011;42155;53.096;23.226;2022-08-18T08:48:22;13.65;;;4.55;;
56242;SDS011;42155;53.096;23.226;2022-08-18T08:50:28;13.57;;;4.88;;
56242;SDS011;42155;53.096;23.226;2022-08-18T08:52:41;15.05;;;5.07;;
56242;SDS011;42155;53.096;23.226;2022-08-18T08:55:06;10.20;;;4.55;;
56242;SDS011;42155;53.096;23.226;2022-08-18T08:57:12;9.90;;;4.82;;
56242;SDS011;42155;53.096;23.226;2022-08-18T08:59:17;12.88;;;4.85;;
56242;SDS011;42155;53.096;23.226;2022-08-18T09:01:30;15.48;;;4.82;;
56242;SDS011;42155;53.096;23.226;2022-08-18T09:06:19;12.35;;;4.97;;
56242;SDS011;42155;53.096;23.226;2022-08-18T09:29:13;14.77;;;5.45;;
56242;SDS011;42155;53.096;23.226;2022-08-18T09:31:19;15.15;;;5.43;;
56242;SDS011;42155;53.096;23.226;2022-08-18T09:38:08;12.57;;;5.07;;
56242;SDS011;42155;53.096;23.226;2022-08-18T09:40:17;8.18;;;4.97;;
56242;SDS011;42155;53.096;23.226;2022-08-18T09:46:50;9.57;;;4.93;;
56242;SDS011;42155;53.096;23.226;2022-08-18T09:48:52;11.23;;;5.05;;
56242;SDS011;42155;53.096;23.226;2022-08-18T09:51:35;11.48;;;5.10;;
56242;SDS011;42155;53.096;23.226;2022-08-18T09:55:52;14.05;;;5.55;;
56242;SDS011;42155;53.096;23.226;2022-08-18T10:00:33;8.95;;;4.63;;
56242;SDS011;42155;53.096;23.226;2022-08-18T10:04:37;14.13;;;5.13;;
56242;SDS011;42155;53.096;23.226;2022-08-18T10:06:43;12.93;;;5.35;;
56242;SDS011;42155;53.096;23.226;2022-08-18T10:08:59;12.82;;;5.13;;
56242;SDS011;42155;53.096;23.226;2022-08-18T10:13:24;8.48;;;4.85;;
56242;SDS011;42155;53.096;23.226;2022-08-18T10:22:42;14.80;;;4.80;;
56242;SDS011;42155;53.096;23.226;2022-08-18T10:24:51;8.82;;;5.10;;
56242;SDS011;42155;53.096;23.226;2022-08-18T10:29:08;9.15;;;5.32;;
56242;SDS011;42155;53.096;23.226;2022-08-18T10:31:16;16.13;;;5.78;;
56242;SDS011;42155;53.096;23.226;2022-08-18T10:33:55;13.30;;;5.55;;
56242;SDS011;42155;53.096;23.226;2022-08-18T10:35:57;9.80;;;4.80;;
56242;SDS011;42155;53.096;23.226;2022-08-18T10:37:59;7.68;;;5.00;;
56242;SDS011;42155;53.096;23.226;2022-08-18T10:40:17;10.52;;;4.75;;
56242;SDS011;42155;53.096;23.226;2022-08-18T10:42:24;13.05;;;5.85;;
56242;SDS011;42155;53.096;23.226;2022-08-18T10:44:29;13.63;;;5.38;;
56242;SDS011;42155;53.096;23.226;2022-08-18T10:46:34;15.50;;;5.53;;
56242;SDS011;42155;53.096;23.226;2022-08-18T10:48:41;9.75;;;5.43;;
56242;SDS011;42155;53.096;23.226;2022-08-18T10:50:51;15.77;;;5.22;;
56242;SDS011;42155;53.096;23.226;2022-08-18T10:53:19;12.27;;;5.30;;
56242;SDS011;42155;53.096;23.226;2022-08-18T10:55:35;11.07;;;5.00;;
56242;SDS011;42155;53.096;23.226;2022-08-18T11:04:43;7.57;;;4.95;;
56242;SDS011;42155;53.096;23.226;2022-08-18T11:06:50;11.25;;;5.35;;
56242;SDS011;42155;53.096;23.226;2022-08-18T11:08:58;13.20;;;5.15;;
56242;SDS011;42155;53.096;23.226;2022-08-18T11:11:05;9.90;;;4.55;;
56242;SDS011;42155;53.096;23.226;2022-08-18T11:17:38;11.30;;;5.10;;
56242;SDS011;42155;53.096;23.226;2022-08-18T11:19:57;13.35;;;5.50;;
56242;SDS011;42155;53.096;23.226;2022-08-18T11:22:00;7.80;;;4.43;;
56242;SDS011;42155;53.096;23.226;2022-08-18T11:24:15;13.45;;;5.32;;
56242;SDS011;42155;53.096;23.226;2022-08-18T11:26:15;9.43;;;4.95;;
56242;SDS011;42155;53.096;23.226;2022-08-18T11:28:16;14.48;;;5.78;;
56242;SDS011;42155;53.096;23.226;2022-08-18T11:30:18;16.40;;;5.53;;
56242;SDS011;42155;53.096;23.226;2022-08-18T11:32:29;9.73;;;5.03;;
56242;SDS011;42155;53.096;23.226;2022-08-18T11:36:34;9.57;;;4.40;;
56242;SDS011;42155;53.096;23.226;2022-08-18T11:38:35;13.60;;;5.00;;
56242;SDS011;42155;53.096;23.226;2022-08-18T11:40:37;13.57;;;4.68;;
56242;SDS011;42155;53.096;23.226;2022-08-18T11:42:40;10.95;;;4.93;;
56242;SDS011;42155;53.096;23.226;2022-08-18T11:44:53;12.75;;;5.35;;
56242;SDS011;42155;53.096;23.226;2022-08-18T11:47:08;14.23;;;4.93;;
56242;SDS011;42155;53.096;23.226;2022-08-18T11:49:15;9.30;;;4.60;;
56242;SDS011;42155;53.096;23.226;2022-08-18T11:51:29;11.82;;;5.00;;
56242;SDS011;42155;53.096;23.226;2022-08-18T11:55:32;15.73;;;4.65;;
56242;SDS011;42155;53.096;23.226;2022-08-18T11:57:48;9.73;;;5.15;;
56242;SDS011;42155;53.096;23.226;2022-08-18T11:59:49;25.13;;;6.05;;
56242;SDS011;42155;53.096;23.226;2022-08-18T12:01:50;12.88;;;5.05;;
56242;SDS011;42155;53.096;23.226;2022-08-18T12:03:52;10.10;;;5.07;;
56242;SDS011;42155;53.096;23.226;2022-08-18T12:05:57;12.70;;;4.82;;
56242;SDS011;42155;53.096;23.226;2022-08-18T12:10:32;10.50;;;4.75;;
56242;SDS011;42155;53.096;23.226;2022-08-18T12:12:32;11.23;;;4.95;;
56242;SDS011;42155;53.096;23.226;2022-08-18T12:14:33;10.85;;;4.72;;
56242;SDS011;42155;53.096;23.226;2022-08-18T12:16:51;12.73;;;4.88;;
56242;SDS011;42155;53.096;23.226;2022-08-18T12:18:52;10.55;;;4.38;;
56242;SDS011;42155;53.096;23.226;2022-08-18T12:20:53;13.07;;;4.57;;
56242;SDS011;42155;53.096;23.226;2022-08-18T12:22:54;11.93;;;4.40;;
56242;SDS011;42155;53.096;23.226;2022-08-18T12:24:56;11.35;;;4.60;;
56242;SDS011;42155;53.096;23.226;2022-08-18T12:26:58;13.30;;;4.63;;
56242;SDS011;42155;53.096;23.226;2022-08-18T12:28:58;12.57;;;4.65;;
56242;SDS011;42155;53.096;23.226;2022-08-18T12:30:59;18.92;;;4.95;;
56242;SDS011;42155;53.096;23.226;2022-08-18T12:32:59;12.80;;;4.82;;
56242;SDS011;42155;53.096;23.226;2022-08-18T12:34:59;12.38;;;5.20;;
56242;SDS011;42155;53.096;23.226;2022-08-18T12:37:00;10.77;;;4.65;;
56242;SDS011;42155;53.096;23.226;2022-08-18T12:39:01;12.88;;;4.95;;
56242;SDS011;42155;53.096;23.226;2022-08-18T12:41:02;12.70;;;5.15;;
56242;SDS011;42155;53.096;23.226;2022-08-18T12:43:03;14.25;;;4.97;;
56242;SDS011;42155;53.096;23.226;2022-08-18T12:45:03;13.70;;;4.80;;
56242;SDS011;42155;53.096;23.226;2022-08-18T12:47:06;9.63;;;5.13;;
56242;SDS011;42155;53.096;23.226;2022-08-18T12:49:21;13.52;;;5.20;;
56242;SDS011;42155;53.096;23.226;2022-08-18T12:51:23;11.77;;;5.00;;
56242;SDS011;42155;53.096;23.226;2022-08-18T12:53:23;11.48;;;5.07;;
56242;SDS011;42155;53.096;23.226;2022-08-18T12:55:32;9.70;;;5.22;;
56242;SDS011;42155;53.096;23.226;2022-08-18T12:57:34;13.50;;;5.38;;
56242;SDS011;42155;53.096;23.226;2022-08-18T12:59:35;14.23;;;5.22;;
56242;SDS011;42155;53.096;23.226;2022-08-18T13:01:37;13.50;;;4.88;;
56242;SDS011;42155;53.096;23.226;2022-08-18T13:03:38;11.10;;;5.05;;
56242;SDS011;42155;53.096;23.226;2022-08-18T13:05:39;8.82;;;4.95;;
56242;SDS011;42155;53.096;23.226;2022-08-18T13:07:39;12.05;;;5.13;;
56242;SDS011;42155;53.096;23.226;2022-08-18T13:09:40;12.25;;;5.00;;
56242;SDS011;42155;53.096;23.226;2022-08-18T13:11:41;8.18;;;4.90;;
56242;SDS011;42155;53.096;23.226;2022-08-18T13:13:41;11.65;;;4.35;;
56242;SDS011;42155;53.096;23.226;2022-08-18T13:15:41;9.27;;;4.88;;
56242;SDS011;42155;53.096;23.226;2022-08-18T13:17:42;8.85;;;5.07;;
56242;SDS011;42155;53.096;23.226;2022-08-18T13:19:43;9.15;;;4.93;;
56242;SDS011;42155;53.096;23.226;2022-08-18T13:21:43;10.07;;;4.78;;
56242;SDS011;42155;53.096;23.226;2022-08-18T13:23:43;13.10;;;4.85;;
56242;SDS011;42155;53.096;23.226;2022-08-18T13:25:44;15.20;;;5.22;;
56242;SDS011;42155;53.096;23.226;2022-08-18T13:27:46;9.77;;;5.05;;
56242;SDS011;42155;53.096;23.226;2022-08-18T13:29:46;8.18;;;4.97;;
56242;SDS011;42155;53.096;23.226;2022-08-18T13:31:46;15.02;;;4.65;;
56242;SDS011;42155;53.096;23.226;2022-08-18T13:33:47;11.25;;;4.60;;
56242;SDS011;42155;53.096;23.226;2022-08-18T13:35:47;12.40;;;5.45;;
56242;SDS011;42155;53.096;23.226;2022-08-18T13:37:48;11.30;;;4.57;;
56242;SDS011;42155;53.096;23.226;2022-08-18T13:39:49;9.88;;;4.70;;
56242;SDS011;42155;53.096;23.226;2022-08-18T13:41:50;10.35;;;5.05;;
56242;SDS011;42155;53.096;23.226;2022-08-18T13:43:52;12.30;;;4.93;;
56242;SDS011;42155;53.096;23.226;2022-08-18T13:45:52;10.80;;;4.63;;
56242;SDS011;42155;53.096;23.226;2022-08-18T13:47:53;12.27;;;4.32;;
56242;SDS011;42155;53.096;23.226;2022-08-18T13:49:53;12.07;;;4.45;;
56242;SDS011;42155;53.096;23.226;2022-08-18T13:51:54;11.68;;;5.10;;
56242;SDS011;42155;53.096;23.226;2022-08-18T13:53:55;13.98;;;5.05;;
56242;SDS011;42155;53.096;23.226;2022-08-18T13:55:55;13.82;;;5.00;;
56242;SDS011;42155;53.096;23.226;2022-08-18T13:57:56;17.42;;;5.88;;
56242;SDS011;42155;53.096;23.226;2022-08-18T13:59:56;12.50;;;4.95;;
56242;SDS011;42155;53.096;23.226;2022-08-18T14:01:58;13.63;;;4.93;;
56242;SDS011;42155;53.096;23.226;2022-08-18T14:04:00;13.05;;;5.40;;
56242;SDS011;42155;53.096;23.226;2022-08-18T14:06:01;11.48;;;4.75;;
56242;SDS011;42155;53.096;23.226;2022-08-18T14:08:02;11.13;;;5.03;;